createdAt,value
2023-01-15T01:26:05.167Z,94548.00
2023-01-15T01:27:05.127Z,94548.00
2023-01-15T01:28:05.079Z,94548.00
2023-01-15T01:29:05.038Z,94548.00
2023-01-15T01:30:04.991Z,94545.00
2023-01-15T01:31:05.030Z,94541.00
2023-01-15T01:32:04.930Z,94541.00
2023-01-15T01:33:04.861Z,94539.00
2023-01-15T01:34:04.825Z,94535.00
2023-01-15T01:35:04.774Z,94537.00
2023-01-15T01:36:04.718Z,94535.00
2023-01-15T01:37:04.680Z,94535.00
2023-01-15T01:38:04.633Z,94531.00
2023-01-15T01:39:04.597Z,94529.00
2023-01-15T01:40:04.557Z,94527.00
2023-01-15T01:41:04.494Z,94529.00
2023-01-15T01:42:04.450Z,94525.00
2023-01-15T01:43:04.404Z,94523.00
2023-01-15T01:44:04.357Z,94521.00
2023-01-15T01:45:04.313Z,94513.00
2023-01-15T01:46:04.325Z,94513.00
2023-01-15T01:47:04.217Z,94511.00
2023-01-15T01:48:04.173Z,94505.00
2023-01-15T01:49:04.136Z,94503.00
2023-01-15T01:50:04.076Z,94507.00
2023-01-15T01:51:04.037Z,94507.00
2023-01-15T01:52:04.009Z,94509.00
2023-01-15T01:53:03.971Z,94503.00
2023-01-15T01:54:03.903Z,94503.00
2023-01-15T01:55:03.850Z,94499.00
2023-01-15T01:56:03.789Z,94498.00
2023-01-15T01:57:03.738Z,94496.00
2023-01-15T01:58:03.685Z,94494.00
2023-01-15T01:59:03.654Z,94492.00
2023-01-15T02:00:03.581Z,94494.00
2023-01-15T02:01:03.607Z,94492.00
2023-01-15T02:02:03.580Z,94494.00
2023-01-15T02:03:03.471Z,94490.00
2023-01-15T02:04:03.366Z,94488.00
2023-01-15T02:05:03.324Z,94490.00
2023-01-15T02:06:03.266Z,94482.00
2023-01-15T02:07:03.222Z,94484.00
2023-01-15T02:08:03.157Z,94480.00
2023-01-15T02:09:03.113Z,94484.00
2023-01-15T02:10:03.062Z,94484.00
2023-01-15T02:11:03.005Z,94484.00
2023-01-15T02:12:02.953Z,94480.00
2023-01-15T02:13:02.914Z,94480.00
2023-01-15T02:14:02.924Z,94476.00
2023-01-15T02:15:02.807Z,94474.00
2023-01-15T02:16:02.802Z,94472.00
2023-01-15T02:17:02.706Z,94472.00
2023-01-15T02:18:02.671Z,94472.00
2023-01-15T02:19:02.645Z,94470.00
2023-01-15T02:20:02.554Z,94466.00
2023-01-15T02:21:02.495Z,94466.00
2023-01-15T02:22:02.468Z,94466.00
2023-01-15T02:23:02.403Z,94464.00
2023-01-15T02:24:03.287Z,94466.00
2023-01-15T02:25:02.328Z,94460.00
2023-01-15T02:26:02.258Z,94464.00
2023-01-15T02:27:02.202Z,94464.00
2023-01-15T02:28:02.171Z,94462.00
2023-01-15T02:29:02.123Z,94460.00
2023-01-15T02:30:02.060Z,94458.00
2023-01-15T02:31:02.003Z,94456.00
2023-01-15T02:32:01.951Z,94456.00
2023-01-15T02:33:01.904Z,94454.00
2023-01-15T02:34:01.842Z,94452.00
2023-01-15T02:35:01.807Z,94450.00
2023-01-15T02:36:01.749Z,94446.00
2023-01-15T02:37:01.714Z,94444.00
2023-01-15T02:38:01.669Z,94444.00
2023-01-15T02:39:01.615Z,94443.00
2023-01-15T02:40:01.596Z,94443.00
2023-01-15T02:41:01.625Z,94439.00
2023-01-15T02:42:01.474Z,94439.00
2023-01-15T02:43:01.431Z,94439.00
2023-01-15T02:44:01.379Z,94439.00
2023-01-15T02:45:01.336Z,94435.00
2023-01-15T02:46:01.395Z,94435.00
2023-01-15T02:47:01.270Z,94435.00
2023-01-15T02:48:01.191Z,94435.00
2023-01-15T02:49:01.151Z,94429.00
2023-01-15T02:50:01.095Z,94429.00
2023-01-15T02:51:01.045Z,94425.00
2023-01-15T02:52:01.007Z,94427.00
2023-01-15T02:53:00.944Z,94423.00
2023-01-15T02:54:00.903Z,94419.00
2023-01-15T02:55:00.856Z,94413.00
2023-01-15T02:56:00.808Z,94411.00
2023-01-15T02:57:00.802Z,94413.00
2023-01-15T02:58:00.720Z,94415.00
2023-01-15T02:59:00.683Z,94411.00
2023-01-15T03:00:00.623Z,94405.00
2023-01-15T03:01:00.678Z,94403.00
2023-01-15T03:02:00.749Z,94405.00
2023-01-15T03:03:00.477Z,94399.00
2023-01-15T03:04:00.443Z,94394.00
2023-01-15T03:05:00.375Z,94396.00
2023-01-15T03:06:00.363Z,94394.00
2023-01-15T03:07:00.296Z,94392.00
2023-01-15T03:08:00.247Z,94390.00
2023-01-15T03:09:00.197Z,94386.00
2023-01-15T03:10:00.220Z,94388.00
2023-01-15T03:11:00.123Z,94386.00
2023-01-15T03:12:00.055Z,94388.00
2023-01-15T03:13:00.011Z,94388.00
2023-01-15T03:13:59.954Z,94384.00
2023-01-15T03:14:59.903Z,94382.00
2023-01-15T03:15:59.863Z,94374.00
2023-01-15T03:16:59.812Z,94374.00
2023-01-15T03:17:59.777Z,94370.00
2023-01-15T03:18:59.725Z,94368.00
2023-01-15T03:19:59.677Z,94362.00
2023-01-15T03:20:59.629Z,94362.00
2023-01-15T03:21:59.586Z,94364.00
2023-01-15T03:22:59.536Z,94362.00
2023-01-15T03:23:59.513Z,94362.00
2023-01-15T03:24:59.449Z,94356.00
2023-01-15T03:25:59.407Z,94352.00
2023-01-15T03:26:59.368Z,94352.00
2023-01-15T03:27:59.322Z,94351.00
2023-01-15T03:28:59.287Z,94352.00
2023-01-15T03:29:59.242Z,94347.00
2023-01-15T03:30:59.267Z,94351.00
2023-01-15T03:31:59.165Z,94351.00
2023-01-15T03:32:59.113Z,94352.00
2023-01-15T03:33:59.064Z,94349.00
2023-01-15T03:34:59.038Z,94345.00
2023-01-15T03:35:58.977Z,94341.00
2023-01-15T03:36:58.926Z,94339.00
2023-01-15T03:37:58.889Z,94343.00
2023-01-15T03:38:58.848Z,94341.00
2023-01-15T03:39:58.810Z,94341.00
2023-01-15T03:40:58.762Z,94339.00
2023-01-15T03:41:58.715Z,94343.00
2023-01-15T03:42:58.673Z,94337.00
2023-01-15T03:43:58.632Z,94337.00
2023-01-15T03:44:58.585Z,94339.00
2023-01-15T03:45:58.645Z,94337.00
2023-01-15T03:46:58.493Z,94337.00
2023-01-15T03:47:58.456Z,94337.00
2023-01-15T03:48:58.397Z,94333.00
2023-01-15T03:49:58.350Z,94325.00
2023-01-15T03:50:58.306Z,94325.00
2023-01-15T03:51:58.265Z,94321.00
2023-01-15T03:52:58.218Z,94317.00
2023-01-15T03:53:58.264Z,94311.00
2023-01-15T03:54:58.132Z,94317.00
2023-01-15T03:55:58.088Z,94315.00
2023-01-15T03:56:58.044Z,94311.00
2023-01-15T03:57:57.981Z,94307.00
2023-01-15T03:58:57.958Z,94305.00
2023-01-15T03:59:57.890Z,94307.00
2023-01-15T04:00:57.985Z,94307.00
2023-01-15T04:01:57.977Z,94298.00
2023-01-15T04:02:57.754Z,94294.00
2023-01-15T04:03:57.725Z,94290.00
2023-01-15T04:04:57.652Z,94288.00
2023-01-15T04:05:57.599Z,94288.00
2023-01-15T04:06:57.552Z,94292.00
2023-01-15T04:07:57.512Z,94290.00
2023-01-15T04:08:57.456Z,94288.00
2023-01-15T04:09:57.421Z,94284.00
2023-01-15T04:10:57.357Z,94282.00
2023-01-15T04:11:57.308Z,94282.00
2023-01-15T04:12:57.266Z,94282.00
2023-01-15T04:13:57.226Z,94280.00
2023-01-15T04:14:57.181Z,94278.00
2023-01-15T04:15:57.155Z,94278.00
2023-01-15T04:16:57.084Z,94280.00
2023-01-15T04:17:57.047Z,94280.00
2023-01-15T04:18:57.007Z,94282.00
2023-01-15T04:19:56.971Z,94278.00
2023-01-15T04:20:56.932Z,94274.00
2023-01-15T04:21:56.873Z,94274.00
2023-01-15T04:22:56.839Z,94272.00
2023-01-15T04:23:56.792Z,94272.00
2023-01-15T04:24:56.749Z,94270.00
2023-01-15T04:25:56.702Z,94268.00
2023-01-15T04:27:56.630Z,94260.00
2023-01-15T04:28:56.579Z,94266.00
2023-01-15T04:29:56.540Z,94268.00
2023-01-15T04:30:56.601Z,94268.00
2023-01-15T04:31:56.452Z,94268.00
2023-01-15T04:32:56.470Z,94264.00
2023-01-15T04:33:56.372Z,94262.00
2023-01-15T04:34:56.325Z,94264.00
2023-01-15T04:35:56.305Z,94264.00
2023-01-15T04:36:56.241Z,94260.00
2023-01-15T04:37:56.194Z,94264.00
2023-01-15T04:38:56.152Z,94264.00
2023-01-15T04:39:56.109Z,94262.00
2023-01-15T04:40:56.065Z,94264.00
2023-01-15T04:41:56.013Z,94258.00
2023-01-15T04:42:55.976Z,94255.00
2023-01-15T04:43:55.942Z,94251.00
2023-01-15T04:44:55.890Z,94251.00
2023-01-15T04:45:55.896Z,94255.00
2023-01-15T04:46:55.852Z,94255.00
2023-01-15T04:47:55.762Z,94255.00
2023-01-15T04:48:55.721Z,94253.00
2023-01-15T04:49:55.678Z,94243.00
2023-01-15T04:50:55.634Z,94243.00
2023-01-15T04:51:55.635Z,94241.00
2023-01-15T04:52:55.554Z,94239.00
2023-01-15T04:53:55.553Z,94241.00
2023-01-15T04:54:55.464Z,94241.00
2023-01-15T04:55:55.428Z,94243.00
2023-01-15T04:56:55.393Z,94239.00
2023-01-15T04:57:55.348Z,94243.00
2023-01-15T04:58:55.297Z,94243.00
2023-01-15T04:59:55.268Z,94239.00
2023-01-15T05:00:55.202Z,94239.00
2023-01-15T05:02:03.963Z,94241.00
2023-01-15T05:02:55.124Z,94241.00
2023-01-15T05:03:55.074Z,94241.00
2023-01-15T05:04:55.034Z,94245.00
2023-01-15T05:05:55.022Z,94243.00
2023-01-15T05:06:54.954Z,94235.00
2023-01-15T05:07:54.919Z,94231.00
2023-01-15T05:08:54.887Z,94235.00
2023-01-15T05:09:54.841Z,94231.00
2023-01-15T05:10:54.790Z,94229.00
2023-01-15T05:11:54.759Z,94225.00
2023-01-15T05:12:54.706Z,94229.00
2023-01-15T05:13:55.278Z,94233.00
2023-01-15T05:14:54.618Z,94229.00
2023-01-15T05:15:54.668Z,94225.00
2023-01-15T05:16:54.551Z,94229.00
2023-01-15T05:17:54.493Z,94225.00
2023-01-15T05:18:54.451Z,94223.00
2023-01-15T05:19:54.414Z,94225.00
2023-01-15T05:20:54.373Z,94225.00
2023-01-15T05:21:54.324Z,94227.00
2023-01-15T05:22:54.285Z,94223.00
2023-01-15T05:23:54.248Z,94223.00
2023-01-15T05:24:54.197Z,94225.00
2023-01-15T05:25:54.150Z,94219.00
2023-01-15T05:26:54.107Z,94219.00
2023-01-15T05:27:54.055Z,94219.00
2023-01-15T05:28:54.021Z,94219.00
2023-01-15T05:29:52.977Z,94217.00
2023-01-15T05:30:53.980Z,94215.00
2023-01-15T05:31:53.924Z,94215.00
2023-01-15T05:32:53.842Z,94215.00
2023-01-15T05:33:53.797Z,94215.00
2023-01-15T05:34:53.763Z,94215.00
2023-01-15T05:35:53.714Z,94213.00
2023-01-15T05:36:53.668Z,94211.00
2023-01-15T05:37:53.634Z,94207.00
2023-01-15T05:38:53.579Z,94207.00
2023-01-15T05:39:53.527Z,94206.00
2023-01-15T05:40:53.493Z,94209.00
2023-01-15T05:41:53.442Z,94204.00
2023-01-15T05:42:53.394Z,94206.00
2023-01-15T05:43:53.353Z,94204.00
2023-01-15T05:44:53.298Z,94198.00
2023-01-15T05:45:53.255Z,94204.00
2023-01-15T05:46:53.227Z,94204.00
2023-01-15T05:47:53.160Z,94207.00
2023-01-15T05:48:53.127Z,94213.00
2023-01-15T05:49:53.069Z,94211.00
2023-01-15T05:50:53.035Z,94206.00
2023-01-15T05:51:52.987Z,94207.00
2023-01-15T05:52:52.953Z,94202.00
2023-01-15T05:53:52.904Z,94204.00
2023-01-15T05:54:52.860Z,94204.00
2023-01-15T05:55:52.817Z,94204.00
2023-01-15T05:56:52.776Z,94207.00
2023-01-15T05:57:52.740Z,94202.00
2023-01-15T05:58:52.690Z,94206.00
2023-01-15T05:59:52.648Z,94207.00
2023-01-15T06:00:52.594Z,94206.00
2023-01-15T06:01:52.564Z,94206.00
2023-01-15T06:02:52.580Z,94206.00
2023-01-15T06:03:52.600Z,94204.00
2023-01-15T06:04:52.428Z,94204.00
2023-01-15T06:05:52.387Z,94204.00
2023-01-15T06:06:52.347Z,94202.00
2023-01-15T06:07:52.303Z,94198.00
2023-01-15T06:08:52.265Z,94194.00
2023-01-15T06:09:52.207Z,94192.00
2023-01-15T06:10:52.161Z,94194.00
2023-01-15T06:11:52.150Z,94194.00
2023-01-15T06:12:52.074Z,94188.00
2023-01-15T06:13:52.055Z,94188.00
2023-01-15T06:14:51.985Z,94188.00
2023-01-15T06:15:51.953Z,94190.00
2023-01-15T06:16:51.893Z,94192.00
2023-01-15T06:17:51.845Z,94192.00
2023-01-15T06:18:51.815Z,94192.00
2023-01-15T06:19:51.782Z,94194.00
2023-01-15T06:20:51.737Z,94194.00
2023-01-15T06:21:51.694Z,94194.00
2023-01-15T06:22:51.687Z,94190.00
2023-01-15T06:23:51.608Z,94194.00
2023-01-15T06:24:51.575Z,94192.00
2023-01-15T06:25:51.546Z,94192.00
2023-01-15T06:26:51.487Z,94192.00
2023-01-15T06:27:51.439Z,94188.00
2023-01-15T06:28:51.388Z,94190.00
2023-01-15T06:29:51.344Z,94192.00
2023-01-15T06:30:51.352Z,94192.00
2023-01-15T06:31:51.347Z,94188.00
2023-01-15T06:32:51.205Z,94190.00
2023-01-15T06:33:51.173Z,94190.00
2023-01-15T06:34:51.116Z,94192.00
2023-01-15T06:35:51.068Z,94192.00
2023-01-15T06:36:51.031Z,94190.00
2023-01-15T06:37:50.985Z,94192.00
2023-01-15T06:38:50.949Z,94190.00
2023-01-15T06:39:50.887Z,94192.00
2023-01-15T06:40:50.843Z,94192.00
2023-01-15T06:41:50.870Z,94194.00
2023-01-15T06:42:50.758Z,94194.00
2023-01-15T06:43:50.706Z,94194.00
2023-01-15T06:44:50.667Z,94192.00
2023-01-15T06:45:50.617Z,94190.00
2023-01-15T06:46:50.599Z,94194.00
2023-01-15T06:47:50.536Z,94192.00
2023-01-15T06:48:50.498Z,94188.00
2023-01-15T06:49:50.449Z,94186.00
2023-01-15T06:50:50.413Z,94188.00
2023-01-15T06:51:50.382Z,94184.00
2023-01-15T06:52:50.309Z,94184.00
2023-01-15T06:53:50.262Z,94174.00
2023-01-15T06:54:50.217Z,94174.00
2023-01-15T06:55:50.182Z,94176.00
2023-01-15T06:56:50.138Z,94176.00
2023-01-15T06:57:50.091Z,94174.00
2023-01-15T06:58:50.047Z,94172.00
2023-01-15T06:59:50.012Z,94172.00
2023-01-15T07:00:49.995Z,94176.00
2023-01-15T07:01:49.932Z,94174.00
2023-01-15T07:02:49.877Z,94176.00
2023-01-15T07:03:49.869Z,94174.00
2023-01-15T07:04:49.833Z,94164.00
2023-01-15T07:05:49.752Z,94164.00
2023-01-15T07:06:49.702Z,94168.00
2023-01-15T07:07:49.656Z,94174.00
2023-01-15T07:08:49.603Z,94174.00
2023-01-15T07:09:49.579Z,94174.00
2023-01-15T07:10:49.540Z,94172.00
2023-01-15T07:11:49.828Z,94170.00
2023-01-15T07:12:49.447Z,94166.00
2023-01-15T07:13:49.397Z,94172.00
2023-01-15T07:14:49.390Z,94176.00
2023-01-15T07:15:49.309Z,94170.00
2023-01-15T07:16:49.271Z,94170.00
2023-01-15T07:17:49.236Z,94172.00
2023-01-15T07:18:49.191Z,94176.00
2023-01-15T07:19:49.151Z,94174.00
2023-01-15T07:20:49.114Z,94174.00
2023-01-15T07:21:49.154Z,94178.00
2023-01-15T07:22:49.011Z,94180.00
2023-01-15T07:23:48.965Z,94178.00
2023-01-15T07:24:48.965Z,94182.00
2023-01-15T07:25:48.880Z,94178.00
2023-01-15T07:26:48.845Z,94184.00
2023-01-15T07:27:48.795Z,94178.00
2023-01-15T07:28:48.749Z,94176.00
2023-01-15T07:29:48.702Z,94174.00
2023-01-15T07:30:48.666Z,94170.00
2023-01-15T07:31:48.623Z,94174.00
2023-01-15T07:32:48.581Z,94174.00
2023-01-15T07:33:48.529Z,94170.00
2023-01-15T07:34:48.487Z,94178.00
2023-01-15T07:35:48.439Z,94172.00
2023-01-15T07:36:48.394Z,94172.00
2023-01-15T07:37:48.365Z,94168.00
2023-01-15T07:38:48.300Z,94172.00
2023-01-15T07:39:48.327Z,94176.00
2023-01-15T07:40:48.204Z,94176.00
2023-01-15T07:41:48.170Z,94174.00
2023-01-15T07:42:48.136Z,94178.00
2023-01-15T07:43:48.051Z,94182.00
2023-01-15T07:44:48.004Z,94184.00
2023-01-15T07:45:48.075Z,94184.00
2023-01-15T07:46:47.909Z,94184.00
2023-01-15T07:47:47.878Z,94190.00
2023-01-15T07:48:47.820Z,94194.00
2023-01-15T07:49:47.763Z,94190.00
2023-01-15T07:50:47.723Z,94188.00
2023-01-15T07:51:47.663Z,94186.00
2023-01-15T07:52:47.621Z,94188.00
2023-01-15T07:53:47.574Z,94190.00
2023-01-15T07:54:47.532Z,94194.00
2023-01-15T07:55:47.474Z,94190.00
2023-01-15T07:56:47.429Z,94194.00
2023-01-15T07:57:47.379Z,94198.00
2023-01-15T07:58:47.333Z,94198.00
2023-01-15T07:59:47.281Z,94200.00
2023-01-15T08:00:47.288Z,94196.00
2023-01-15T08:01:47.410Z,94196.00
2023-01-15T08:02:47.137Z,94202.00
2023-01-15T08:03:47.121Z,94207.00
2023-01-15T08:04:47.045Z,94207.00
2023-01-15T08:05:46.992Z,94211.00
2023-01-15T08:06:46.947Z,94209.00
2023-01-15T08:07:46.906Z,94211.00
2023-01-15T08:08:46.857Z,94213.00
2023-01-15T08:09:46.814Z,94213.00
2023-01-15T08:10:46.856Z,94213.00
2023-01-15T08:11:46.712Z,94211.00
2023-01-15T08:12:46.671Z,94206.00
2023-01-15T08:13:46.610Z,94207.00
2023-01-15T08:14:46.587Z,94204.00
2023-01-15T08:15:46.551Z,94202.00
2023-01-15T08:16:46.514Z,94200.00
2023-01-15T08:17:46.437Z,94196.00
2023-01-15T08:18:46.374Z,94196.00
2023-01-15T08:19:46.314Z,94192.00
2023-01-15T08:20:47.324Z,94194.00
2023-01-15T08:21:46.227Z,94186.00
2023-01-15T08:22:46.177Z,94190.00
2023-01-15T08:23:46.148Z,94188.00
2023-01-15T08:24:46.081Z,94188.00
2023-01-15T08:25:46.038Z,94190.00
2023-01-15T08:26:46.006Z,94190.00
2023-01-15T08:27:45.950Z,94190.00
2023-01-15T08:28:45.899Z,94188.00
2023-01-15T08:29:45.866Z,94182.00
2023-01-15T08:30:45.812Z,94178.00
2023-01-15T08:31:45.796Z,94180.00
2023-01-15T08:32:45.731Z,94176.00
2023-01-15T08:33:45.668Z,94176.00
2023-01-15T08:34:45.642Z,94176.00
2023-01-15T08:35:45.577Z,94178.00
2023-01-15T08:36:45.534Z,94178.00
2023-01-15T08:37:45.498Z,94180.00
2023-01-15T08:38:45.451Z,94176.00
2023-01-15T08:39:45.399Z,94176.00
2023-01-15T08:40:45.354Z,94178.00
2023-01-15T08:41:45.302Z,94176.00
2023-01-15T08:42:45.246Z,94174.00
2023-01-15T08:43:45.198Z,94172.00
2023-01-15T08:44:45.154Z,94172.00
2023-01-15T08:45:45.124Z,94168.00
2023-01-15T08:46:45.097Z,94166.00
2023-01-15T08:47:45.020Z,94166.00
2023-01-15T08:48:44.992Z,94162.00
2023-01-15T08:49:44.938Z,94160.00
2023-01-15T08:50:44.895Z,94156.00
2023-01-15T08:51:44.853Z,94153.00
2023-01-15T08:52:44.811Z,94145.00
2023-01-15T08:53:44.758Z,94143.00
2023-01-15T08:54:44.714Z,94135.00
2023-01-15T08:55:44.691Z,94133.00
2023-01-15T08:56:44.627Z,94131.00
2023-01-15T08:57:44.585Z,94129.00
2023-01-15T08:58:44.546Z,94131.00
2023-01-15T08:59:44.517Z,94129.00
2023-01-15T09:00:44.461Z,94131.00
2023-01-15T09:01:44.528Z,94129.00
2023-01-15T09:02:44.363Z,94129.00
2023-01-15T09:03:44.312Z,94133.00
2023-01-15T09:04:44.308Z,94135.00
2023-01-15T09:05:44.223Z,94131.00
2023-01-15T09:06:44.199Z,94129.00
2023-01-15T09:07:44.174Z,94125.00
2023-01-15T09:08:44.083Z,94127.00
2023-01-15T09:09:44.042Z,94125.00
2023-01-15T09:10:44.010Z,94117.00
2023-01-15T09:11:43.969Z,94111.00
2023-01-15T09:12:43.929Z,94110.00
2023-01-15T09:13:44.542Z,94108.00
2023-01-15T09:14:56.732Z,94104.00
2023-01-15T09:15:43.800Z,94104.00
2023-01-15T09:16:43.792Z,94102.00
2023-01-15T09:17:43.687Z,94102.00
2023-01-15T09:18:43.647Z,94098.00
2023-01-15T09:19:43.627Z,94102.00
2023-01-15T09:20:43.550Z,94102.00
2023-01-15T09:21:43.516Z,94104.00
2023-01-15T09:22:43.490Z,94102.00
2023-01-15T09:23:43.430Z,94106.00
2023-01-15T09:24:43.394Z,94100.00
2023-01-15T09:25:43.354Z,94100.00
2023-01-15T09:26:43.286Z,94100.00
2023-01-15T09:27:43.280Z,94100.00
2023-01-15T09:28:43.202Z,94098.00
2023-01-15T09:29:43.174Z,94100.00
2023-01-15T09:30:43.178Z,94100.00
2023-01-15T09:31:43.067Z,94100.00
2023-01-15T09:32:43.087Z,94096.00
2023-01-15T09:33:42.978Z,94096.00
2023-01-15T09:34:42.930Z,94090.00
2023-01-15T09:35:42.885Z,94086.00
2023-01-15T09:36:42.932Z,94084.00
2023-01-15T09:37:42.808Z,94082.00
2023-01-15T09:38:42.770Z,94084.00
2023-01-15T09:39:42.761Z,94084.00
2023-01-15T09:40:42.665Z,94082.00
2023-01-15T09:41:42.622Z,94082.00
2023-01-15T09:42:42.574Z,94080.00
2023-01-15T09:43:49.968Z,94080.00
2023-01-15T09:44:42.482Z,94078.00
2023-01-15T09:45:42.474Z,94080.00
2023-01-15T09:46:42.391Z,94076.00
2023-01-15T09:47:42.338Z,94078.00
2023-01-15T09:48:42.297Z,94080.00
2023-01-15T09:49:42.255Z,94080.00
2023-01-15T09:50:42.199Z,94076.00
2023-01-15T09:51:42.159Z,94078.00
2023-01-15T09:52:42.117Z,94076.00
2023-01-15T09:53:42.108Z,94080.00
2023-01-15T09:54:42.029Z,94082.00
2023-01-15T09:55:41.978Z,94080.00
2023-01-15T09:56:41.931Z,94080.00
2023-01-15T09:57:41.875Z,94080.00
2023-01-15T09:58:41.857Z,94078.00
2023-01-15T09:59:41.781Z,94072.00
2023-01-15T10:00:41.737Z,94070.00
2023-01-15T10:01:41.691Z,94068.00
2023-01-15T10:02:41.636Z,94072.00
2023-01-15T10:03:41.617Z,94074.00
2023-01-15T10:04:41.537Z,94072.00
2023-01-15T10:05:41.503Z,94072.00
2023-01-15T10:06:41.508Z,94078.00
2023-01-15T10:07:41.384Z,94080.00
2023-01-15T10:08:41.335Z,94080.00
2023-01-15T10:09:41.276Z,94080.00
2023-01-15T10:10:41.226Z,94080.00
2023-01-15T10:11:41.182Z,94076.00
2023-01-15T10:12:41.142Z,94076.00
2023-01-15T10:13:41.103Z,94076.00
2023-01-15T10:14:41.041Z,94072.00
2023-01-15T10:15:41.068Z,94072.00
2023-01-15T10:16:40.950Z,94072.00
2023-01-15T10:17:40.895Z,94070.00
2023-01-15T10:18:40.900Z,94068.00
2023-01-15T10:19:44.857Z,94072.00
2023-01-15T10:20:40.777Z,94068.00
2023-01-15T10:21:40.703Z,94068.00
2023-01-15T10:22:40.665Z,94070.00
2023-01-15T10:23:40.694Z,94068.00
2023-01-15T10:24:40.568Z,94066.00
2023-01-15T10:25:40.564Z,94064.00
2023-01-15T10:26:40.530Z,94064.00
2023-01-15T10:27:40.439Z,94066.00
2023-01-15T10:28:40.406Z,94061.00
2023-01-15T10:29:40.347Z,94059.00
2023-01-15T10:30:40.372Z,94057.00
2023-01-15T10:31:40.259Z,94053.00
2023-01-15T10:32:40.849Z,94051.00
2023-01-15T10:33:40.191Z,94049.00
2023-01-15T10:34:40.117Z,94047.00
2023-01-15T10:35:40.060Z,94043.00
2023-01-15T10:36:40.025Z,94043.00
2023-01-15T10:37:39.965Z,94037.00
2023-01-15T10:38:39.927Z,94035.00
2023-01-15T10:39:39.903Z,94035.00
2023-01-15T10:40:39.827Z,94033.00
2023-01-15T10:41:39.795Z,94033.00
2023-01-15T10:42:39.749Z,94037.00
2023-01-15T10:43:39.705Z,94035.00
2023-01-15T10:44:39.650Z,94035.00
2023-01-15T10:45:39.593Z,94033.00
2023-01-15T10:46:39.544Z,94033.00
2023-01-15T10:47:39.497Z,94029.00
2023-01-15T10:48:39.451Z,94033.00
2023-01-15T10:49:39.411Z,94027.00
2023-01-15T10:50:39.385Z,94029.00
2023-01-15T10:51:39.312Z,94027.00
2023-01-15T10:52:39.263Z,94025.00
2023-01-15T10:53:39.236Z,94025.00
2023-01-15T10:54:39.183Z,94025.00
2023-01-15T10:55:39.198Z,94021.00
2023-01-15T10:56:39.111Z,94017.00
2023-01-15T10:57:39.027Z,94023.00
2023-01-15T10:58:38.977Z,94019.00
2023-01-15T10:59:38.927Z,94016.00
2023-01-15T11:00:38.885Z,94012.00
2023-01-15T11:01:38.967Z,94012.00
2023-01-15T11:02:38.951Z,94010.00
2023-01-15T11:03:38.739Z,94008.00
2023-01-15T11:04:38.687Z,94008.00
2023-01-15T11:05:38.685Z,94008.00
2023-01-15T11:06:38.600Z,94006.00
2023-01-15T11:07:41.662Z,94002.00
2023-01-15T11:09:09.622Z,94006.00
2023-01-15T11:09:38.467Z,94002.00
2023-01-15T11:10:40.612Z,94002.00
2023-01-15T11:11:38.342Z,93994.00
2023-01-15T11:12:38.296Z,93992.00
2023-01-15T11:13:38.232Z,93990.00
2023-01-15T11:14:38.186Z,93984.00
2023-01-15T11:15:38.175Z,93982.00
2023-01-15T11:16:38.119Z,93986.00
2023-01-15T11:17:38.073Z,93986.00
2023-01-15T11:18:37.998Z,93982.00
2023-01-15T11:19:37.956Z,93986.00
2023-01-15T11:20:37.895Z,93980.00
2023-01-15T11:21:37.851Z,93982.00
2023-01-15T11:22:37.802Z,93978.00
2023-01-15T11:23:37.760Z,93980.00
2023-01-15T11:24:37.701Z,93978.00
2023-01-15T11:25:37.668Z,93984.00
2023-01-15T11:26:37.609Z,93980.00
2023-01-15T11:27:37.569Z,93982.00
2023-01-15T11:28:37.519Z,93978.00
2023-01-15T11:29:37.468Z,93976.00
2023-01-15T11:30:37.467Z,93974.00
2023-01-15T11:31:37.379Z,93976.00
2023-01-15T11:32:37.343Z,93976.00
2023-01-15T11:33:37.295Z,93980.00
2023-01-15T11:34:37.244Z,93980.00
2023-01-15T11:35:37.206Z,93982.00
2023-01-15T11:36:37.149Z,93984.00
2023-01-15T11:37:37.136Z,93982.00
2023-01-15T11:38:37.065Z,93986.00
2023-01-15T11:39:37.013Z,93982.00
2023-01-15T11:40:36.987Z,93978.00
2023-01-15T11:41:36.920Z,93978.00
2023-01-15T11:42:36.905Z,93978.00
2023-01-15T11:43:36.832Z,93976.00
2023-01-15T11:44:36.791Z,93970.00
2023-01-15T11:45:36.746Z,93974.00
2023-01-15T11:46:36.724Z,93980.00
2023-01-15T11:47:36.818Z,93982.00
2023-01-15T11:48:36.593Z,93986.00
2023-01-15T11:49:36.537Z,93984.00
2023-01-15T11:50:36.535Z,93986.00
2023-01-15T11:51:36.452Z,93986.00
2023-01-15T11:52:36.403Z,93990.00
2023-01-15T11:53:36.358Z,93994.00
2023-01-15T11:54:36.309Z,93996.00
2023-01-15T11:55:36.292Z,93994.00
2023-01-15T11:56:36.205Z,93994.00
2023-01-15T11:57:36.156Z,94000.00
2023-01-15T11:58:36.109Z,94000.00
2023-01-15T11:59:37.153Z,94000.00
2023-01-15T12:00:36.035Z,94000.00
2023-01-15T12:01:36.050Z,94002.00
2023-01-15T12:02:35.923Z,94002.00
2023-01-15T12:03:36.017Z,94006.00
2023-01-15T12:04:35.937Z,94008.00
2023-01-15T12:05:35.869Z,94010.00
2023-01-15T12:06:35.734Z,94012.00
2023-01-15T12:07:35.681Z,94016.00
2023-01-15T12:08:35.668Z,94017.00
2023-01-15T12:09:35.583Z,94019.00
2023-01-15T12:10:35.529Z,94021.00
2023-01-15T12:11:35.514Z,94023.00
2023-01-15T12:12:35.437Z,94023.00
2023-01-15T12:13:35.382Z,94025.00
2023-01-15T12:14:35.334Z,94027.00
2023-01-15T12:15:35.290Z,94025.00
2023-01-15T12:16:35.243Z,94023.00
2023-01-15T12:17:37.367Z,94027.00
2023-01-15T12:18:35.132Z,94029.00
2023-01-15T12:19:35.088Z,94031.00
2023-01-15T12:20:35.037Z,94035.00
2023-01-15T12:21:34.991Z,94037.00
2023-01-15T12:22:34.953Z,94039.00
2023-01-15T12:23:34.890Z,94041.00
2023-01-15T12:24:34.860Z,94039.00
2023-01-15T12:25:34.811Z,94039.00
2023-01-15T12:26:34.768Z,94039.00
2023-01-15T12:27:34.677Z,94043.00
2023-01-15T12:28:34.636Z,94047.00
2023-01-15T12:29:34.579Z,94051.00
2023-01-15T12:30:34.563Z,94051.00
2023-01-15T12:31:34.537Z,94061.00
2023-01-15T12:32:34.443Z,94064.00
2023-01-15T12:33:34.388Z,94066.00
2023-01-15T12:34:34.353Z,94074.00
2023-01-15T12:35:34.287Z,94078.00
2023-01-15T12:36:34.276Z,94084.00
2023-01-15T12:37:34.190Z,94084.00
2023-01-15T12:38:34.143Z,94082.00
2023-01-15T12:39:34.100Z,94088.00
2023-01-15T12:40:34.073Z,94094.00
2023-01-15T12:41:34.026Z,94094.00
2023-01-15T12:42:33.950Z,94102.00
2023-01-15T12:43:33.915Z,94106.00
2023-01-15T12:44:33.855Z,94111.00
2023-01-15T12:45:33.834Z,94111.00
2023-01-15T12:46:33.804Z,94117.00
2023-01-15T12:47:33.702Z,94127.00
2023-01-15T12:48:33.652Z,94127.00
2023-01-15T12:49:33.600Z,94135.00
2023-01-15T12:50:33.588Z,94131.00
2023-01-15T12:51:33.502Z,94141.00
2023-01-15T12:52:33.448Z,94139.00
2023-01-15T12:53:33.392Z,94139.00
2023-01-15T12:54:33.339Z,94149.00
2023-01-15T12:55:33.414Z,94147.00
2023-01-15T12:56:33.249Z,94153.00
2023-01-15T12:57:33.195Z,94160.00
2023-01-15T12:58:33.137Z,94168.00
2023-01-15T12:59:33.084Z,94162.00
2023-01-15T13:00:33.191Z,94166.00
2023-01-15T13:01:33.059Z,94170.00
2023-01-15T13:02:32.998Z,94172.00
2023-01-15T13:03:32.878Z,94180.00
2023-01-15T13:04:32.827Z,94192.00
2023-01-15T13:05:32.787Z,94198.00
2023-01-15T13:06:32.728Z,94206.00
2023-01-15T13:07:32.685Z,94200.00
2023-01-15T13:08:32.616Z,94206.00
2023-01-15T13:09:32.572Z,94213.00
2023-01-15T13:10:32.518Z,94213.00